Time;durP1;ratioP1;P1;durP2;ratioP2;P2;SDS_P1;SDS_P2;PMS_P1;PMS_P2;Temp;Humidity;BMP_temperature;BMP_pressure;BME280_temperature;BME280_humidity;BME280_pressure;Samples;Min_cycle;Max_cycle;Signal;HPM_P1;HPM_P2
2022/11/09 00:00:05;;;;;;;8.40;2.03;;;10.90;99.90;;;;;;4992749;28;20519;-78
2022/11/09 00:02:31;;;;;;;7.03;2.13;;;11.00;99.90;;;;;;4991733;28;20125;-76
2022/11/09 00:04:56;;;;;;;6.93;2.17;;;11.00;99.90;;;;;;4975136;28;20129;-77
2022/11/09 00:07:22;;;;;;;8.23;2.03;;;11.00;99.90;;;;;;4976013;28;20408;-77
2022/11/09 00:09:47;;;;;;;7.80;1.98;;;11.00;99.90;;;;;;4992879;28;20374;-76
2022/11/09 00:12:13;;;;;;;5.63;1.85;;;11.00;99.90;;;;;;4991580;28;20054;-77
2022/11/09 00:14:39;;;;;;;6.90;2.30;;;11.00;99.90;;;;;;4991210;28;20057;-76
2022/11/09 00:17:04;;;;;;;6.53;2.00;;;11.00;99.90;;;;;;4976368;28;20543;-75
2022/11/09 00:19:30;;;;;;;7.82;2.15;;;11.10;99.90;;;;;;4988928;28;20048;-77
2022/11/09 00:21:56;;;;;;;6.13;1.95;;;11.00;99.90;;;;;;4972631;28;20129;-76
2022/11/09 00:24:21;;;;;;;5.18;1.77;;;11.10;99.90;;;;;;4982850;28;20432;-77
2022/11/09 00:26:47;;;;;;;6.75;1.90;;;11.00;99.90;;;;;;4977124;28;20088;-76
2022/11/09 00:29:12;;;;;;;7.88;1.65;;;11.10;99.90;;;;;;4973886;28;20097;-77
2022/11/09 00:31:38;;;;;;;5.65;1.65;;;11.10;99.90;;;;;;4992686;28;20047;-76
2022/11/09 00:34:04;;;;;;;4.15;1.42;;;11.10;99.90;;;;;;4991955;28;20058;-77
2022/11/09 00:36:29;;;;;;;5.00;1.50;;;11.10;99.90;;;;;;4943268;28;20925;-78
2022/11/09 00:38:58;;;;;;;5.13;1.65;;;11.10;99.90;;;;;;4970151;28;20412;-77
2022/11/09 00:41:24;;;;;;;7.28;1.60;;;11.20;99.90;;;;;;4972957;28;20058;-77
2022/11/09 00:43:50;;;;;;;6.85;1.60;;;11.10;99.90;;;;;;4972428;28;20046;-77
2022/11/09 00:46:17;;;;;;;6.53;1.42;;;11.10;99.90;;;;;;4964084;28;20405;-77
2022/11/09 00:48:43;;;;;;;8.63;2.17;;;11.20;99.90;;;;;;4967342;28;20061;-77
2022/11/09 00:51:09;;;;;;;5.15;1.58;;;11.20;99.90;;;;;;4972655;28;20085;-77
2022/11/09 00:53:35;;;;;;;7.78;2.03;;;11.20;99.90;;;;;;4971402;28;20054;-76
2022/11/09 00:56:03;;;;;;;6.82;1.75;;;11.20;99.90;;;;;;4985728;28;20035;-77
2022/11/09 00:58:31;;;;;;;5.03;1.95;;;11.30;99.90;;;;;;4976033;28;20461;-76
2022/11/09 01:00:58;;;;;;;4.78;2.45;;;11.30;99.90;;;;;;4992496;28;20050;-77
2022/11/09 01:03:25;;;;;;;8.05;2.80;;;11.30;99.90;;;;;;4990510;28;20654;-77
2022/11/09 01:05:50;;;;;;;6.93;2.63;;;11.30;99.90;;;;;;4992460;28;20101;-77
2022/11/09 01:08:16;;;;;;;10.35;3.33;;;11.30;99.90;;;;;;4958072;28;20436;-77
2022/11/09 01:10:45;;;;;;;8.57;3.20;;;11.30;99.90;;;;;;4977442;28;20100;-77
2022/11/09 01:13:13;;;;;;;8.98;3.50;;;11.30;99.90;;;;;;4954181;28;20051;-77
2022/11/09 01:15:47;;;;;;;6.85;3.40;;;11.30;99.90;;;;;;4961742;28;20389;-76
2022/11/09 01:18:14;;;;;;;8.63;3.17;;;11.30;99.90;;;;;;4956488;28;20055;-77
2022/11/09 01:20:42;;;;;;;7.93;3.70;;;11.30;99.90;;;;;;4984206;28;20042;-77
2022/11/09 01:23:09;;;;;;;10.23;4.13;;;11.40;99.90;;;;;;4987537;28;20065;-77
2022/11/09 01:25:35;;;;;;;11.63;4.10;;;11.50;99.90;;;;;;4970625;28;20050;-77
2022/11/09 01:28:01;;;;;;;8.50;3.50;;;11.50;99.90;;;;;;4957583;28;20069;-77
2022/11/09 01:30:27;;;;;;;9.98;3.33;;;11.50;99.90;;;;;;4991755;28;20443;-77
2022/11/09 01:32:52;;;;;;;12.75;3.97;;;11.60;99.90;;;;;;4990468;28;20062;-77
2022/11/09 01:35:18;;;;;;;9.77;3.63;;;11.70;99.90;;;;;;4991699;28;20046;-77
2022/11/09 01:37:44;;;;;;;8.15;2.97;;;11.80;99.90;;;;;;4975635;28;20069;-76
2022/11/09 01:40:11;;;;;;;11.27;3.17;;;11.80;99.90;;;;;;4991088;28;20480;-78
2022/11/09 01:42:37;;;;;;;10.80;3.10;;;11.80;99.90;;;;;;4990833;28;20046;-77
2022/11/09 01:45:18;;;;;;;13.20;3.95;;;11.80;99.90;;;;;;4991400;28;20046;-77
2022/11/09 01:47:51;;;;;;;13.30;3.93;;;11.90;99.90;;;;;;4974837;28;20562;-78
2022/11/09 01:50:25;;;;;;;11.23;4.50;;;12.00;99.90;;;;;;4990516;28;20336;-77
2022/11/09 01:52:50;;;;;;;12.40;3.83;;;11.90;99.90;;;;;;4990109;28;20390;-77
2022/11/09 01:55:22;;;;;;;10.68;3.08;;;11.90;99.90;;;;;;4991004;28;20392;-76
2022/11/09 01:58:11;;;;;;;10.75;2.78;;;12.00;99.90;;;;;;4957656;28;20054;-76
2022/11/09 02:00:40;;;;;;;5.72;2.50;;;11.90;99.90;;;;;;4957703;28;20065;-76
2022/11/09 02:03:29;;;;;;;8.02;2.15;;;11.90;99.90;;;;;;4990186;28;20046;-76
2022/11/09 02:05:57;;;;;;;8.30;1.75;;;11.80;99.90;;;;;;4973877;28;20485;-76
2022/11/09 02:08:25;;;;;;;12.60;2.33;;;11.70;99.90;;;;;;4974818;28;20050;-77
2022/11/09 02:11:11;;;;;;;7.65;2.60;;;11.60;99.90;;;;;;4973290;28;20378;-77
2022/11/09 02:13:41;;;;;;;9.00;3.03;;;11.60;99.90;;;;;;4990425;28;20050;-78
2022/11/09 02:16:10;;;;;;;10.82;3.38;;;11.70;99.90;;;;;;4986873;28;20508;-79
2022/11/09 02:18:37;;;;;;;10.07;3.30;;;11.80;99.90;;;;;;4982137;28;20051;-78
2022/11/09 02:21:04;;;;;;;8.43;3.28;;;11.70;99.90;;;;;;4990427;28;20050;-79
2022/11/09 02:23:30;;;;;;;13.95;4.22;;;11.80;99.90;;;;;;4988983;28;20078;-78
2022/11/09 02:26:05;;;;;;;13.00;3.50;;;11.80;99.90;;;;;;4988529;28;20096;-76
2022/11/09 02:28:31;;;;;;;12.25;3.90;;;11.70;99.90;;;;;;4957341;28;20046;-77
2022/11/09 02:30:57;;;;;;;9.05;3.50;;;11.60;99.90;;;;;;4990828;28;20050;-77
2022/11/09 02:33:23;;;;;;;10.38;3.33;;;11.70;99.90;;;;;;4989035;28;20085;-77
2022/11/09 02:35:49;;;;;;;15.52;3.47;;;11.60;99.90;;;;;;4977146;28;20047;-77
2022/11/09 02:38:15;;;;;;;13.40;3.35;;;11.50;99.90;;;;;;4955198;28;20043;-77
2022/11/09 02:40:46;;;;;;;16.85;3.88;;;11.50;99.90;;;;;;4971183;28;20063;-77
2022/11/09 02:43:14;;;;;;;8.80;2.85;;;11.40;99.90;;;;;;4970322;28;20046;-77
2022/11/09 02:45:39;;;;;;;7.72;3.22;;;11.40;99.90;;;;;;4970244;28;20054;-79
2022/11/09 02:48:05;;;;;;;12.63;3.28;;;11.40;99.90;;;;;;4954844;28;20047;-77
2022/11/09 02:50:31;;;;;;;11.30;3.20;;;11.40;99.90;;;;;;4971152;28;20465;-77
2022/11/09 02:52:57;;;;;;;12.32;3.40;;;11.40;99.90;;;;;;4981581;28;20083;-77
2022/11/09 02:55:23;;;;;;;12.85;3.22;;;11.30;99.90;;;;;;4982178;28;20039;-77
2022/11/09 02:57:48;;;;;;;14.75;3.58;;;11.40;99.90;;;;;;4954552;28;20082;-77
2022/11/09 03:00:15;;;;;;;14.35;3.47;;;11.30;99.90;;;;;;4970305;28;20096;-77
2022/11/09 03:02:41;;;;;;;12.93;3.47;;;11.40;99.90;;;;;;4952653;28;20608;-78
2022/11/09 03:05:07;;;;;;;9.75;3.45;;;11.50;99.90;;;;;;4971232;28;20049;-77
2022/11/09 03:07:32;;;;;;;12.88;3.53;;;11.40;99.90;;;;;;4954748;28;20047;-77
2022/11/09 03:09:58;;;;;;;11.75;3.10;;;11.30;99.90;;;;;;4979464;28;20054;-77
2022/11/09 03:12:29;;;;;;;14.02;3.63;;;11.20;99.90;;;;;;4989079;28;20062;-77
2022/11/09 03:14:56;;;;;;;;;;;11.30;99.90;;;;;;4990633;28;20373;-75
2022/11/09 03:17:21;;;;;;;13.18;3.33;;;11.30;99.90;;;;;;4973938;28;19926;-75
2022/11/09 03:19:47;;;;;;;12.88;3.42;;;11.30;99.90;;;;;;4968051;28;20035;-75
2022/11/09 03:22:13;;;;;;;12.85;3.60;;;11.30;99.90;;;;;;4969874;28;20058;-75
2022/11/09 03:24:39;;;;;;;10.80;3.30;;;11.30;99.90;;;;;;4959961;28;20122;-75
2022/11/09 03:27:04;;;;;;;13.90;3.90;;;11.40;99.90;;;;;;4954888;28;20126;-74
2022/11/09 03:29:30;;;;;;;13.15;3.33;;;11.20;99.90;;;;;;4956991;28;20394;-75
2022/11/09 03:31:56;;;;;;;12.80;3.08;;;11.20;99.90;;;;;;4990086;28;20121;-75
2022/11/09 03:34:21;;;;;;;12.93;2.83;;;11.30;99.90;;;;;;4987205;28;20084;-74
2022/11/09 03:36:47;;;;;;;12.35;3.45;;;11.20;99.90;;;;;;4954915;28;20049;-76
2022/11/09 03:39:13;;;;;;;9.32;3.38;;;11.20;99.90;;;;;;4970584;28;20046;-75
2022/11/09 03:41:39;;;;;;;16.15;3.28;;;11.30;99.90;;;;;;4970594;28;20408;-75
2022/11/09 03:44:04;;;;;;;15.75;3.25;;;11.20;99.90;;;;;;4969432;28;20047;-75
2022/11/09 03:46:30;;;;;;;15.77;3.53;;;11.30;99.90;;;;;;4940927;28;20054;-76
2022/11/09 03:48:56;;;;;;;12.93;3.47;;;11.30;99.90;;;;;;4968841;28;20452;-75
2022/11/09 03:51:22;;;;;;;12.95;3.20;;;11.20;99.90;;;;;;4973187;28;20055;-75
2022/11/09 03:53:47;;;;;;;11.30;2.80;;;11.30;99.90;;;;;;4973135;28;20055;-75
2022/11/09 03:56:13;;;;;;;9.80;2.72;;;11.20;99.90;;;;;;4978544;28;20079;-76
2022/11/09 03:58:39;;;;;;;14.23;2.92;;;11.30;99.90;;;;;;4985912;28;20047;-76
2022/11/09 04:01:04;;;;;;;15.87;3.30;;;11.20;99.90;;;;;;4992917;28;20054;-75
2022/11/09 04:03:30;;;;;;;12.55;3.10;;;11.20;99.90;;;;;;4991885;28;20090;-75
2022/11/09 04:05:58;;;;;;;14.75;3.40;;;11.30;99.90;;;;;;4992955;28;20432;-75
2022/11/09 04:08:23;;;;;;;17.65;3.83;;;11.20;99.90;;;;;;4976948;28;20081;-75
2022/11/09 04:10:49;;;;;;;11.63;3.08;;;11.30;99.90;;;;;;4976967;28;20551;-75
2022/11/09 04:13:15;;;;;;;16.08;3.17;;;11.20;99.90;;;;;;4955221;28;20062;-75
2022/11/09 04:15:42;;;;;;;16.42;3.47;;;11.20;99.90;;;;;;4973647;28;20047;-76
2022/11/09 04:18:13;;;;;;;17.48;3.30;;;11.10;99.90;;;;;;4957133;28;20057;-75
2022/11/09 04:20:39;;;;;;;;;;;11.10;99.90;;;;;;4985976;28;20057;-75
2022/11/09 04:23:06;;;;;;;14.02;3.00;;;11.10;99.90;;;;;;4991799;28;20009;-75
2022/11/09 04:25:34;;;;;;;16.83;2.97;;;11.10;99.90;;;;;;4977259;28;20394;-75
2022/11/09 04:28:01;;;;;;;9.70;3.08;;;11.00;99.90;;;;;;4939627;28;20065;-76
2022/11/09 04:30:28;;;;;;;14.23;2.97;;;11.00;99.90;;;;;;4973692;28;20103;-75
2022/11/09 04:32:55;;;;;;;16.13;3.25;;;11.00;99.90;;;;;;4972320;28;20050;-75
2022/11/09 04:35:20;;;;;;;12.57;2.72;;;11.00;99.90;;;;;;4973497;28;20086;-75
2022/11/09 04:37:53;;;;;;;16.65;3.45;;;11.00;99.90;;;;;;4939911;28;20089;-77
2022/11/09 04:40:19;;;;;;;13.85;3.15;;;11.10;99.90;;;;;;4972612;28;20716;-78
2022/11/09 04:42:45;;;;;;;11.23;3.42;;;11.20;99.90;;;;;;4972453;28;20051;-74
2022/11/09 04:45:10;;;;;;;11.32;2.92;;;11.10;99.90;;;;;;4956086;28;20097;-75
2022/11/09 04:47:36;;;;;;;12.57;3.03;;;11.10;99.90;;;;;;4957044;28;20055;-75
2022/11/09 04:50:02;;;;;;;13.32;3.00;;;11.00;99.90;;;;;;4956106;28;20054;-75
2022/11/09 04:52:27;;;;;;;15.65;3.42;;;11.10;99.90;;;;;;4972124;28;20043;-75
2022/11/09 04:54:53;;;;;;;11.82;3.22;;;10.90;99.90;;;;;;4976617;28;20593;-75
2022/11/09 04:57:19;;;;;;;12.65;2.88;;;11.10;99.90;;;;;;4975799;28;20054;-75
2022/11/09 04:59:44;;;;;;;19.58;7.13;;;11.10;99.90;;;;;;4992706;28;20050;-75
2022/11/09 05:02:10;;;;;;;17.63;5.13;;;11.10;99.90;;;;;;4990639;28;20050;-75
2022/11/09 05:04:35;;;;;;;18.65;6.78;;;11.20;99.90;;;;;;4992368;28;20127;-75
2022/11/09 05:07:01;;;;;;;19.27;6.47;;;11.20;99.90;;;;;;4976603;28;20050;-76
2022/11/09 05:09:27;;;;;;;23.88;7.95;;;11.30;99.90;;;;;;4990939;28;20046;-75
2022/11/09 05:11:52;;;;;;;25.80;12.10;;;11.40;99.90;;;;;;4992456;28;20038;-75
2022/11/09 05:14:18;;;;;;;20.90;8.07;;;11.50;99.90;;;;;;4991262;28;20046;-77
2022/11/09 05:16:44;;;;;;;29.27;14.25;;;11.50;99.90;;;;;;4976412;28;20050;-80
2022/11/09 05:19:09;;;;;;;18.60;6.43;;;11.50;99.90;;;;;;4991048;28;20057;-77
2022/11/09 05:21:35;;;;;;;19.48;4.68;;;11.40;99.90;;;;;;4972382;28;20061;-76
2022/11/09 05:24:01;;;;;;;17.95;3.70;;;11.40;99.90;;;;;;4975013;28;20046;-77
2022/11/09 05:26:33;;;;;;;12.90;3.63;;;11.50;99.90;;;;;;4978943;28;20520;-77
2022/11/09 05:29:00;;;;;;;;;;;11.40;99.90;;;;;;4989659;28;20054;-77
2022/11/09 05:31:26;;;;;;;13.05;5.38;;;11.40;99.90;;;;;;4991395;28;20020;-78
2022/11/09 05:33:52;;;;;;;18.77;6.50;;;11.30;99.90;;;;;;4990335;28;20515;-77
2022/11/09 05:36:19;;;;;;;10.95;4.57;;;11.40;99.90;;;;;;4980582;28;20047;-78
2022/11/09 05:38:45;;;;;;;13.32;3.53;;;11.30;99.90;;;;;;4969454;28;20541;-77
2022/11/09 05:41:11;;;;;;;24.38;6.45;;;11.30;99.90;;;;;;4991879;28;20050;-77
2022/11/09 05:43:37;;;;;;;18.95;5.25;;;11.30;99.90;;;;;;4990682;28;20054;-78
2022/11/09 05:46:03;;;;;;;17.02;4.45;;;11.30;99.90;;;;;;4987850;28;20555;-79
2022/11/09 05:48:28;;;;;;;11.15;4.15;;;11.20;99.90;;;;;;4954271;28;20054;-77
2022/11/09 05:50:54;;;;;;;12.70;3.58;;;11.20;99.90;;;;;;4988581;28;20058;-77
2022/11/09 05:53:20;;;;;;;15.73;3.97;;;11.10;99.90;;;;;;4985884;28;20046;-77
2022/11/09 05:55:45;;;;;;;12.75;4.97;;;11.20;99.90;;;;;;4958714;28;20069;-79
2022/11/09 05:58:11;;;;;;;16.05;3.53;;;11.20;99.90;;;;;;4957470;28;20101;-78
2022/11/09 06:00:37;;;;;;;15.23;5.40;;;11.20;99.90;;;;;;4987687;28;20050;-77
2022/11/09 06:03:08;;;;;;;16.45;3.47;;;11.20;99.90;;;;;;4987052;28;20051;-77
2022/11/09 06:05:35;;;;;;;16.17;3.58;;;11.20;99.90;;;;;;4972682;28;20058;-78
2022/11/09 06:08:12;;;;;;;14.67;3.80;;;11.10;99.90;;;;;;4973818;28;20073;-77
2022/11/09 06:10:38;;;;;;;16.17;3.85;;;11.10;99.90;;;;;;4976514;28;20244;-78
2022/11/09 06:13:04;;;;;;;14.15;3.75;;;11.20;99.90;;;;;;4971983;28;20043;-77
2022/11/09 06:15:30;;;;;;;17.42;4.40;;;11.10;99.90;;;;;;4987332;28;20527;-77
2022/11/09 06:17:57;;;;;;;20.73;4.60;;;11.20;99.90;;;;;;4971955;28;20077;-78
2022/11/09 06:20:23;;;;;;;13.90;3.25;;;11.00;99.90;;;;;;4967953;28;20054;-77
2022/11/09 06:22:57;;;;;;;15.20;3.75;;;10.90;99.90;;;;;;4986031;28;20116;-77
2022/11/09 06:25:23;;;;;;;19.67;6.95;;;10.90;99.90;;;;;;4980133;28;20062;-78
2022/11/09 06:27:49;;;;;;;13.60;3.35;;;11.00;99.90;;;;;;4971555;28;20511;-77
2022/11/09 06:30:15;;;;;;;20.75;9.07;;;11.00;99.90;;;;;;4987685;28;20046;-77
2022/11/09 06:32:41;;;;;;;21.60;7.57;;;11.00;99.90;;;;;;4950281;28;20047;-78
2022/11/09 06:35:08;;;;;;;15.70;4.55;;;10.90;99.90;;;;;;4984714;28;20050;-77
2022/11/09 06:37:34;;;;;;;14.45;5.32;;;11.00;99.90;;;;;;4972164;28;20512;-79
2022/11/09 06:40:00;;;;;;;15.30;4.78;;;10.90;99.90;;;;;;4987334;28;20073;-78
2022/11/09 06:42:25;;;;;;;16.10;4.03;;;10.90;99.90;;;;;;4969803;28;20050;-79
2022/11/09 06:44:51;;;;;;;13.05;3.50;;;11.00;99.90;;;;;;4990152;28;20042;-78
2022/11/09 06:47:17;;;;;;;13.80;3.78;;;10.80;99.90;;;;;;4974270;28;20125;-78
2022/11/09 06:49:42;;;;;;;17.37;3.80;;;10.90;99.90;;;;;;4989854;28;20161;-77
2022/11/09 06:52:08;;;;;;;15.60;3.88;;;10.90;99.90;;;;;;4989583;28;20054;-77
2022/11/09 06:54:33;;;;;;;13.93;4.40;;;11.00;99.90;;;;;;4990492;28;20499;-77
2022/11/09 06:57:00;;;;;;;15.52;4.13;;;10.90;99.90;;;;;;4975078;28;20058;-77
2022/11/09 06:59:25;;;;;;;17.13;4.70;;;10.80;99.90;;;;;;4985449;28;20560;-77
2022/11/09 07:01:51;;;;;;;14.77;4.32;;;10.80;99.90;;;;;;4989903;28;20061;-78
2022/11/09 07:04:16;;;;;;;16.23;4.10;;;10.80;99.90;;;;;;4989110;28;20050;-78
2022/11/09 07:06:42;;;;;;;14.87;3.80;;;10.80;99.90;;;;;;4976600;28;20074;-78
2022/11/09 07:09:09;;;;;;;9.93;3.60;;;10.80;99.90;;;;;;4985933;28;20452;-79
2022/11/09 07:11:35;;;;;;;11.80;3.10;;;10.80;99.90;;;;;;4970976;28;20059;-78
2022/11/09 07:14:01;;;;;;;10.50;3.37;;;10.80;99.90;;;;;;4969072;28;20102;-77
2022/11/09 07:16:31;;;;;;;15.20;3.33;;;10.80;99.90;;;;;;4957934;28;20490;-77
2022/11/09 07:18:57;;;;;;;13.40;3.05;;;10.80;99.90;;;;;;4968210;28;20051;-77
2022/11/09 07:21:22;;;;;;;14.13;3.10;;;10.80;99.90;;;;;;4988700;28;20542;-78
2022/11/09 07:23:49;;;;;;;11.27;3.50;;;10.70;99.90;;;;;;4970790;28;20046;-77
2022/11/09 07:26:15;;;;;;;13.32;3.28;;;10.80;99.90;;;;;;4984897;28;20058;-78
2022/11/09 07:28:41;;;;;;;16.33;3.25;;;10.80;99.90;;;;;;4986338;28;20062;-78
2022/11/09 07:31:08;;;;;;;13.35;3.33;;;10.80;99.90;;;;;;4994151;28;20439;-77
2022/11/09 07:33:34;;;;;;;13.65;3.20;;;10.90;99.90;;;;;;4993318;28;20099;-77
2022/11/09 07:36:02;;;;;;;14.50;3.08;;;10.80;99.90;;;;;;4978650;28;20082;-77
2022/11/09 07:38:29;;;;;;;20.75;6.40;;;10.90;99.90;;;;;;4964633;28;20137;-78
2022/11/09 07:40:59;;;;;;;14.00;3.10;;;10.90;99.90;;;;;;4981291;28;20047;-78
2022/11/09 07:43:24;;;;;;;15.75;3.85;;;10.90;99.90;;;;;;4981536;28;20560;-77
2022/11/09 07:45:50;;;;;;;15.10;3.25;;;10.90;99.90;;;;;;4984677;28;20054;-77
2022/11/09 07:48:16;;;;;;;16.63;3.85;;;11.00;99.90;;;;;;4942973;28;20073;-77
2022/11/09 07:50:42;;;;;;;16.75;3.70;;;10.90;99.90;;;;;;4992099;28;20062;-78
2022/11/09 07:53:11;;;;;;;15.07;3.60;;;10.80;99.90;;;;;;4986348;28;20049;-77
2022/11/09 07:55:37;;;;;;;16.55;3.42;;;11.00;99.90;;;;;;4983329;28;20035;-77
2022/11/09 07:58:12;;;;;;;11.48;3.20;;;11.00;99.90;;;;;;4954905;28;20101;-77
2022/11/09 08:00:39;;;;;;;13.73;3.30;;;11.00;99.90;;;;;;4970060;28;20046;-77
2022/11/09 08:03:05;;;;;;;14.65;3.50;;;11.10;99.90;;;;;;4986574;28;20440;-77
2022/11/09 08:05:31;;;;;;;13.27;3.10;;;11.10;99.90;;;;;;4972498;28;20050;-78
2022/11/09 08:07:59;;;;;;;16.70;3.65;;;11.10;99.90;;;;;;4966024;28;20051;-77
2022/11/09 08:10:25;;;;;;;15.10;3.30;;;11.10;99.90;;;;;;4984537;28;20050;-77
2022/11/09 08:12:59;;;;;;;11.57;3.55;;;11.20;99.90;;;;;;4945642;28;20077;-77
2022/11/09 08:15:25;;;;;;;13.75;3.47;;;11.20;99.90;;;;;;4973373;28;20548;-77
2022/11/09 08:17:51;;;;;;;14.05;3.60;;;11.20;99.90;;;;;;4958548;28;20479;-77
2022/11/09 08:20:18;;;;;;;16.33;3.60;;;11.20;99.90;;;;;;4967447;28;20034;-77
2022/11/09 08:22:46;;;;;;;14.70;3.38;;;11.30;99.90;;;;;;4963552;28;20054;-77
2022/11/09 08:25:13;;;;;;;14.27;3.25;;;11.30;99.90;;;;;;4981700;28;20058;-78
2022/11/09 08:27:39;;;;;;;14.75;3.33;;;11.30;99.90;;;;;;4960792;28;20459;-78
2022/11/09 08:30:07;;;;;;;15.48;3.67;;;11.50;99.90;;;;;;4979158;28;20055;-79
2022/11/09 08:32:33;;;;;;;11.27;3.28;;;11.40;99.90;;;;;;4978611;28;20049;-77
2022/11/09 08:34:59;;;;;;;14.80;3.95;;;11.40;99.90;;;;;;4981239;28;20046;-77
2022/11/09 08:37:24;;;;;;;12.32;2.95;;;11.50;99.90;;;;;;4963556;28;20120;-78
2022/11/09 08:39:50;;;;;;;9.25;2.90;;;11.50;99.90;;;;;;4968689;28;20428;-78
2022/11/09 08:42:16;;;;;;;17.02;3.63;;;11.60;99.90;;;;;;4977241;28;20488;-77
2022/11/09 08:44:41;;;;;;;13.75;3.20;;;11.60;99.90;;;;;;4977484;28;20059;-78
2022/11/09 08:47:07;;;;;;;16.50;3.70;;;11.70;99.90;;;;;;4952424;28;20065;-78
2022/11/09 08:49:33;;;;;;;9.43;3.22;;;11.80;99.90;;;;;;4979476;28;20058;-77
2022/11/09 08:52:00;;;;;;;12.85;3.15;;;11.90;99.90;;;;;;4978640;28;20129;-77
2022/11/09 08:54:25;;;;;;;17.75;3.60;;;11.90;99.90;;;;;;4979684;28;20051;-78
2022/11/09 08:56:54;;;;;;;17.35;3.83;;;11.80;99.90;;;;;;4962425;28;20356;-78
2022/11/09 08:59:20;;;;;;;15.20;2.97;;;11.90;99.90;;;;;;4971015;28;20054;-78
2022/11/09 09:01:46;;;;;;;12.98;2.95;;;11.90;99.90;;;;;;4975148;28;20062;-77
2022/11/09 09:04:12;;;;;;;17.48;3.45;;;12.10;99.90;;;;;;4985802;28;20051;-78
2022/11/09 09:06:37;;;;;;;15.65;3.70;;;12.10;99.90;;;;;;4971319;28;20476;-78
2022/11/09 09:09:03;;;;;;;11.90;2.67;;;12.10;99.90;;;;;;4986061;28;20077;-77
2022/11/09 09:11:28;;;;;;;18.55;3.83;;;12.10;99.90;;;;;;4988618;28;20073;-78
2022/11/09 09:13:54;;;;;;;16.15;3.40;;;12.10;99.90;;;;;;4989725;28;20113;-77
2022/11/09 09:16:20;;;;;;;14.10;3.35;;;12.10;99.90;;;;;;4978407;28;20046;-78
2022/11/09 09:18:47;;;;;;;14.65;3.60;;;12.20;99.90;;;;;;4984211;28;20050;-78
2022/11/09 09:21:13;;;;;;;12.75;3.08;;;12.20;99.90;;;;;;4989305;28;20085;-78
2022/11/09 09:23:39;;;;;;;10.43;3.30;;;12.20;99.90;;;;;;4987695;28;20090;-77
2022/11/09 09:26:05;;;;;;;15.15;3.20;;;12.30;99.90;;;;;;4970451;28;20467;-78
2022/11/09 09:28:31;;;;;;;15.52;3.42;;;12.40;99.90;;;;;;4949078;28;20046;-78
2022/11/09 09:30:58;;;;;;;12.93;3.53;;;12.40;99.90;;;;;;4986465;28;20042;-77
2022/11/09 09:33:24;;;;;;;13.77;3.47;;;12.50;99.90;;;;;;4968709;28;20058;-78
2022/11/09 09:35:50;;;;;;;13.05;2.85;;;12.60;99.90;;;;;;4977606;28;20348;-78
2022/11/09 09:38:17;;;;;;;14.93;3.38;;;12.70;99.90;;;;;;4971240;28;20042;-78
2022/11/09 09:40:58;;;;;;;13.18;3.38;;;12.80;99.90;;;;;;4989711;28;20500;-78
2022/11/09 09:43:35;;;;;;;11.87;2.80;;;13.00;99.90;;;;;;4989404;28;20058;-78
2022/11/09 09:46:05;;;;;;;15.15;2.90;;;13.10;99.90;;;;;;4990213;28;20273;-78
2022/11/09 09:48:49;;;;;;;17.55;3.45;;;13.10;99.90;;;;;;4973038;28;20054;-78
2022/11/09 09:51:33;;;;;;;11.52;2.90;;;13.30;99.90;;;;;;4972720;28;20484;-78
2022/11/09 09:54:06;;;;;;;14.52;3.05;;;13.30;99.90;;;;;;4989275;28;20077;-78
2022/11/09 09:56:38;;;;;;;16.92;3.80;;;13.20;99.90;;;;;;4958343;28;20090;-78
2022/11/09 09:59:24;;;;;;;15.05;3.20;;;13.30;99.90;;;;;;4967630;28;20051;-78
2022/11/09 10:01:50;;;;;;;10.38;2.97;;;13.20;99.90;;;;;;4970568;28;20082;-78
2022/11/09 10:04:23;;;;;;;13.95;3.05;;;13.20;99.90;;;;;;4969278;28;20519;-78
2022/11/09 10:07:13;;;;;;;13.20;3.53;;;13.30;99.90;;;;;;4950167;28;20444;-78
2022/11/09 10:09:48;;;;;;;11.88;3.38;;;13.40;99.90;;;;;;4976064;28;20054;-78
2022/11/09 10:12:48;;;;;;;11.48;2.80;;;13.30;99.90;;;;;;4984309;28;20046;-78
2022/11/09 10:15:37;;;;;;;13.95;3.38;;;13.40;99.90;;;;;;4990221;28;20485;-78
2022/11/09 10:18:21;;;;;;;13.10;3.15;;;13.50;99.90;;;;;;4973581;28;20488;-78
2022/11/09 10:21:17;;;;;;;16.58;3.70;;;13.60;99.90;;;;;;4983268;28;20088;-78
2022/11/09 10:24:07;;;;;;;16.90;4.53;;;13.80;99.90;;;;;;4975118;28;20066;-78
2022/11/09 10:26:39;;;;;;;12.23;4.20;;;13.80;99.90;;;;;;4974472;28;20618;-79
2022/11/09 10:29:33;;;;;;;14.85;3.85;;;13.70;99.90;;;;;;4969881;28;20092;-78
2022/11/09 10:32:13;;;;;;;11.02;3.58;;;13.40;99.90;;;;;;4976837;28;20042;-78
2022/11/09 10:35:19;;;;;;;12.85;3.63;;;13.30;99.90;;;;;;4973776;28;20061;-81
2022/11/09 10:37:48;;;;;;;17.05;4.38;;;13.20;99.90;;;;;;4973975;28;20507;-78
2022/11/09 10:40:32;;;;;;;19.52;4.53;;;13.40;99.90;;;;;;4989612;28;20054;-78
2022/11/09 10:43:05;;;;;;;20.25;4.68;;;13.30;99.90;;;;;;4987756;28;20415;-78
2022/11/09 10:45:37;;;;;;;19.38;4.13;;;13.40;99.90;;;;;;4989440;28;20065;-79
2022/11/09 10:48:05;;;;;;;17.20;4.30;;;13.40;99.90;;;;;;4956387;28;20061;-78
2022/11/09 10:51:00;;;;;;;13.27;4.15;;;13.40;99.90;;;;;;4970030;28;20331;-78
2022/11/09 10:53:31;;;;;;;12.82;4.03;;;13.40;99.90;;;;;;4958937;28;20063;-78
2022/11/09 10:56:05;;;;;;;13.45;3.75;;;13.70;99.90;;;;;;4969769;28;20047;-78
2022/11/09 10:58:35;;;;;;;17.30;4.05;;;13.50;99.90;;;;;;4938807;28;20043;-78
2022/11/09 11:01:11;;;;;;;16.60;4.50;;;13.30;99.90;;;;;;4976803;28;20047;-79
2022/11/09 11:03:38;;;;;;;11.55;3.90;;;13.20;99.90;;;;;;4967321;28;20097;-78
2022/11/09 11:06:05;;;;;;;13.40;4.53;;;13.20;99.90;;;;;;4966703;28;20042;-79
2022/11/09 11:08:35;;;;;;;12.52;4.20;;;13.20;99.90;;;;;;4972599;28;20050;-78
2022/11/09 11:11:13;;;;;;;16.95;4.65;;;13.20;99.90;;;;;;4982274;28;20050;-78
2022/11/09 11:13:39;;;;;;;11.25;3.97;;;13.10;99.90;;;;;;4968672;28;20101;-78
2022/11/09 11:16:31;;;;;;;14.35;4.05;;;13.00;99.90;;;;;;4983411;28;20334;-81
2022/11/09 11:18:57;;;;;;;16.40;4.05;;;13.00;99.90;;;;;;4986653;28;20054;-78
2022/11/09 11:21:24;;;;;;;14.88;4.13;;;12.90;99.90;;;;;;4970644;28;20080;-78
2022/11/09 11:24:08;;;;;;;12.40;3.97;;;13.00;99.90;;;;;;4969951;28;20063;-79
2022/11/09 11:27:00;;;;;;;12.27;3.75;;;13.00;99.90;;;;;;4963803;28;20057;-78
2022/11/09 11:29:40;;;;;;;14.95;3.58;;;13.00;99.90;;;;;;4950766;28;20047;-78
2022/11/09 11:32:17;;;;;;;17.83;4.03;;;13.00;99.90;;;;;;4968173;28;20051;-78
2022/11/09 11:34:43;;;;;;;12.02;4.15;;;13.00;99.90;;;;;;4969516;28;20044;-78
2022/11/09 11:37:18;;;;;;;12.75;3.65;;;13.00;99.90;;;;;;4950762;28;20519;-78
2022/11/09 11:39:55;;;;;;;15.45;4.20;;;12.80;99.90;;;;;;4979131;28;20104;-78
2022/11/09 11:42:26;;;;;;;14.30;4.35;;;12.90;99.90;;;;;;4982106;28;20054;-79
2022/11/09 11:45:03;;;;;;;11.00;4.18;;;12.90;99.90;;;;;;4982741;28;20566;-78
2022/11/09 11:47:57;;;;;;;13.35;3.80;;;12.80;99.90;;;;;;4966821;28;20387;-78
2022/11/09 11:50:30;;;;;;;18.33;4.57;;;12.80;99.90;;;;;;4983947;28;20038;-78
2022/11/09 11:53:02;;;;;;;19.55;4.47;;;12.70;99.90;;;;;;4986396;28;20054;-78
2022/11/09 11:55:30;;;;;;;;;;;12.60;99.90;;;;;;4981562;28;20062;-78
2022/11/09 11:58:14;;;;;;;18.75;4.88;;;12.70;99.90;;;;;;4959168;28;19922;-78
2022/11/09 12:00:50;;;;;;;21.15;5.18;;;12.60;99.90;;;;;;4978469;28;20073;-78
2022/11/09 12:03:35;;;;;;;15.82;4.80;;;12.70;99.90;;;;;;4985490;28;20050;-78
2022/11/09 12:06:48;;;;;;;13.52;4.53;;;12.70;99.90;;;;;;4983356;28;20061;-78
2022/11/09 12:09:38;;;;;;;17.15;5.18;;;12.70;99.90;;;;;;4921934;28;20101;-81
2022/11/09 12:12:12;;;;;;;17.63;4.90;;;12.70;99.90;;;;;;4986484;28;20073;-76
2022/11/09 12:14:52;;;;;;;14.70;4.75;;;12.60;99.90;;;;;;4988597;28;20046;-78
2022/11/09 12:17:55;;;;;;;12.57;4.07;;;12.70;99.90;;;;;;4970968;28;20375;-78
2022/11/09 12:20:36;;;;;;;14.85;4.22;;;12.70;99.90;;;;;;4985054;28;20055;-81
2022/11/09 12:23:16;;;;;;;16.80;4.25;;;12.70;99.90;;;;;;4988230;28;20509;-81
2022/11/09 12:25:55;;;;;;;15.02;4.25;;;12.70;99.90;;;;;;4982657;28;20633;-78
2022/11/09 12:28:35;;;;;;;12.65;4.30;;;12.70;99.90;;;;;;4973485;28;20051;-78
2022/11/09 12:31:26;;;;;;;15.95;3.97;;;12.70;99.90;;;;;;4985662;28;20050;-78
2022/11/09 12:34:05;;;;;;;18.63;4.40;;;12.70;99.90;;;;;;4989753;28;20047;-79
2022/11/09 12:36:49;;;;;;;12.35;4.47;;;12.70;99.90;;;;;;4952095;28;20529;-78
2022/11/09 12:39:31;;;;;;;15.52;4.30;;;12.70;99.90;;;;;;4982598;28;20154;-78
2022/11/09 12:42:08;;;;;;;14.48;4.93;;;12.70;99.90;;;;;;4990274;28;20466;-79
2022/11/09 12:44:45;;;;;;;19.65;4.57;;;12.70;99.90;;;;;;4953667;28;20038;-78
2022/11/09 12:47:20;;;;;;;13.68;4.75;;;12.80;99.90;;;;;;4954254;28;20051;-78
2022/11/09 12:49:46;;;;;;;11.40;3.92;;;13.00;99.90;;;;;;4961061;28;20058;-78
2022/11/09 12:52:19;;;;;;;12.00;4.30;;;13.10;99.90;;;;;;4977197;28;20147;-78